Kilfoil, Nebraska
Current Conditions -  °F | °C
As of 3:53 PM on Sunday 23 Nov 2014 (Local Time) from KBBW Reporting Station
Clear Clear  
Wind Chill: 40°   Ceiling: Unl
Heat Index: 49°   Visibility: 10mi
Dew Point: 19°   Wind: 37mph
Humidity: 31%   Direction: 330°NNW
Pressure: 29.6"   Gusts: 48mph
Location:  41.3933°N, 99.8458°W
Report Text: KBBW 232153Z AUTO 33032G42KT 10SM CLR 09/M07 A2960 RMK AO2 PK WND 32042/2147 SLP020 T00941072 PWINO $
Loading
Personal Weather Stations






























Interactive Weather Map New forecast layout! Learn more

10-Day Weather Forecast

Advertisements
Track Severe Weather on mobile